Time;durP1;ratioP1;P1;durP2;ratioP2;P2;SDS_P1;SDS_P2;PMS_P1;PMS_P2;Temp;Humidity;BMP_temperature;BMP_pressure;BME280_temperature;BME280_humidity;BME280_pressure;Samples;Min_cycle;Max_cycle;Signal;HPM_P1;HPM_P2
2022/05/10 00:00:29;;;;;;;11.50;10.50;;;;;;;11.50;100.00;100076.47;4821847;29;20198;-74
2022/05/10 00:02:57;;;;;;;11.07;10.10;;;;;;;11.48;100.00;100070.47;4821662;29;20220;-75
2022/05/10 00:05:35;;;;;;;11.33;10.33;;;;;;;11.48;100.00;100073.97;4805741;29;20663;-75
2022/05/10 00:08:05;;;;;;;10.80;9.90;;;;;;;11.46;100.00;100065.34;4822063;29;20221;-75
2022/05/10 00:10:32;;;;;;;11.20;10.30;;;;;;;11.42;100.00;100069.50;4805738;29;20276;-74
2022/05/10 00:12:59;;;;;;;11.13;10.30;;;;;;;11.45;100.00;100062.88;4822087;29;20199;-75
2022/05/10 00:15:26;;;;;;;11.10;10.30;;;;;;;11.44;100.00;100080.81;4821855;29;20206;-76
2022/05/10 00:17:53;;;;;;;11.30;10.30;;;;;;;11.44;100.00;100071.94;4822436;29;20225;-74
2022/05/10 00:20:22;;;;;;;11.17;10.27;;;;;;;11.43;100.00;100071.13;4821616;29;20199;-76
2022/05/10 00:22:50;;;;;;;10.70;9.83;;;;;;;11.43;100.00;100071.13;4821400;29;20294;-76
2022/05/10 00:25:22;;;;;;;10.90;10.00;;;;;;;11.40;100.00;100071.56;4821290;29;20199;-75
2022/05/10 00:27:49;;;;;;;10.90;10.10;;;;;;;11.40;100.00;100073.41;4822200;29;20244;-75
2022/05/10 00:30:16;;;;;;;10.80;9.80;;;;;;;11.35;100.00;100071.38;4821693;29;20743;-76
2022/05/10 00:32:43;;;;;;;10.73;9.83;;;;;;;11.36;100.00;100075.72;4822039;29;20222;-75
2022/05/10 00:35:30;;;;;;;11.17;10.17;;;;;;;11.35;100.00;100067.88;4805542;29;20222;-75
2022/05/10 00:38:01;;;;;;;10.57;9.67;;;;;;;11.33;100.00;100072.63;4821565;29;20187;-75
2022/05/10 00:40:32;;;;;;;10.43;9.63;;;;;;;11.29;100.00;100069.53;4804974;29;20217;-75
2022/05/10 00:43:10;;;;;;;10.80;9.90;;;;;;;11.29;100.00;100060.69;4821799;29;20230;-74
2022/05/10 00:45:43;;;;;;;10.83;9.83;;;;;;;11.29;100.00;100064.16;4805132;29;20294;-74
2022/05/10 00:48:17;;;;;;;10.40;9.47;;;;;;;11.29;100.00;100068.75;4821487;29;20235;-74
2022/05/10 00:50:51;;;;;;;11.07;9.97;;;;;;;11.24;100.00;100057.81;4821639;29;20216;-74
2022/05/10 00:53:27;;;;;;;10.60;9.73;;;;;;;11.21;100.00;100064.41;4822012;29;20242;-75
2022/05/10 00:55:59;;;;;;;10.43;9.63;;;;;;;11.19;100.00;100052.28;4821128;29;20257;-75
2022/05/10 00:58:40;;;;;;;10.47;9.67;;;;;;;11.16;100.00;100048.16;4806243;29;20177;-75
2022/05/10 01:01:08;;;;;;;10.50;9.70;;;;;;;11.13;100.00;100042.38;4805176;29;20272;-75
2022/05/10 01:03:53;;;;;;;10.60;9.70;;;;;;;11.15;100.00;100049.16;4804962;29;20220;-75
2022/05/10 01:06:26;;;;;;;9.50;8.80;;;;;;;11.13;100.00;100043.22;4805525;29;20592;-77
2022/05/10 01:08:59;;;;;;;10.33;9.53;;;;;;;11.16;100.00;100045.47;4805360;29;20182;-75
2022/05/10 01:11:49;;;;;;;11.03;10.10;;;;;;;11.13;100.00;100035.16;4805181;29;20667;-75
2022/05/10 01:14:28;;;;;;;10.10;9.20;;;;;;;11.16;100.00;100039.28;4804745;29;20202;-75
2022/05/10 01:16:56;;;;;;;9.97;9.17;;;;;;;11.09;100.00;100033.97;4821099;29;20210;-75
2022/05/10 01:19:23;;;;;;;10.10;9.30;;;;;;;11.07;100.00;100030.66;4820929;29;20781;-74
2022/05/10 01:21:59;;;;;;;10.60;9.70;;;;;;;11.07;100.00;100024.47;4820715;29;20230;-76
2022/05/10 01:24:51;;;;;;;10.33;9.53;;;;;;;11.01;100.00;100024.28;4820917;29;20634;-75
2022/05/10 01:27:42;;;;;;;10.37;9.53;;;;;;;11.01;100.00;100020.78;4804427;29;20621;-75
2022/05/10 01:30:22;;;;;;;9.90;9.10;;;;;;;11.00;100.00;100019.16;4821025;29;20261;-74
2022/05/10 01:33:30;;;;;;;9.90;9.10;;;;;;;10.95;100.00;100021.63;4804977;29;20230;-74
2022/05/10 01:36:00;;;;;;;10.57;9.77;;;;;;;10.92;100.00;100019.38;4814002;29;20249;-75
2022/05/10 01:38:26;;;;;;;10.27;9.27;;;;;;;10.88;100.00;100029.69;4820961;29;20217;-74
2022/05/10 01:40:57;;;;;;;10.27;9.40;;;;;;;10.81;100.00;100014.69;4820734;29;20274;-74
2022/05/10 01:43:50;;;;;;;10.07;9.27;;;;;;;10.77;100.00;100016.97;4820729;29;20221;-75
2022/05/10 01:46:20;;;;;;;10.30;9.50;;;;;;;10.73;100.00;100012.25;4820590;29;20214;-74
2022/05/10 01:48:50;;;;;;;10.13;9.17;;;;;;;10.71;100.00;100020.47;4804766;29;20183;-74
2022/05/10 01:51:35;;;;;;;9.80;8.90;;;;;;;10.66;100.00;100020.28;4803903;29;20225;-74
2022/05/10 01:54:02;;;;;;;9.90;9.10;;;;;;;10.61;100.00;100012.06;4804841;29;20213;-75
2022/05/10 01:56:30;;;;;;;9.67;8.97;;;;;;;10.56;100.00;100018.03;4820569;29;20213;-73
2022/05/10 01:58:56;;;;;;;10.13;9.33;;;;;;;10.46;100.00;100017.66;4820943;29;20879;-74
2022/05/10 02:01:24;;;;;;;10.53;9.63;;;;;;;10.44;100.00;100021.59;4819747;29;20716;-74
2022/05/10 02:04:00;;;;;;;10.30;9.40;;;;;;;10.37;100.00;100016.22;4804597;29;20689;-75
2022/05/10 02:06:49;;;;;;;10.30;9.40;;;;;;;10.32;100.00;100025.91;4805610;29;20184;-74
2022/05/10 02:09:36;;;;;;;9.97;9.07;;;;;;;10.24;100.00;100026.13;4824259;29;20176;-75
2022/05/10 02:12:23;;;;;;;10.00;9.00;;;;;;;10.21;100.00;100030.06;4807935;29;20193;-75
2022/05/10 02:15:19;;;;;;;9.43;8.73;;;;;;;10.17;100.00;100030.69;4824193;29;20281;-75
2022/05/10 02:17:57;;;;;;;10.03;9.13;;;;;;;10.13;100.00;100031.06;4806405;29;20666;-74
2022/05/10 02:20:34;;;;;;;9.97;9.13;;;;;;;10.07;100.00;100028.41;4823910;29;20277;-74
2022/05/10 02:23:09;;;;;;;10.00;9.20;;;;;;;10.03;100.00;100027.16;4807606;29;20274;-74
2022/05/10 02:25:43;;;;;;;10.27;9.47;;;;;;;10.00;100.00;100023.03;4807967;29;20228;-77
2022/05/10 02:28:34;;;;;;;10.33;9.43;;;;;;;9.97;100.00;100022.63;4807501;29;20213;-74
2022/05/10 02:31:05;;;;;;;10.20;9.40;;;;;;;9.86;100.00;100023.22;4823857;29;20213;-75
2022/05/10 02:33:32;;;;;;;10.57;9.60;;;;;;;9.79;100.00;100017.91;4807809;29;20702;-74
2022/05/10 02:36:00;;;;;;;10.10;9.30;;;;;;;9.78;100.00;100031.47;4807325;29;20819;-75
2022/05/10 02:38:34;;;;;;;10.77;9.87;;;;;;;9.71;100.00;100026.94;4823490;29;20202;-75
2022/05/10 02:41:04;;;;;;;10.23;9.33;;;;;;;9.69;100.00;100025.50;4807374;29;20221;-75
2022/05/10 02:43:35;;;;;;;9.87;9.13;;;;;;;9.64;100.00;100022.59;4807538;29;20301;-74
2022/05/10 02:46:02;;;;;;;10.07;9.27;;;;;;;9.61;100.00;100021.16;4807379;29;20289;-75
2022/05/10 02:48:32;;;;;;;9.30;8.60;;;;;;;9.55;100.00;100021.16;4823472;29;20190;-75
2022/05/10 02:50:59;;;;;;;10.73;9.77;;;;;;;9.51;100.00;100018.06;4823124;29;20198;-75
2022/05/10 02:53:27;;;;;;;10.53;9.63;;;;;;;9.48;100.00;100021.13;4823542;29;20222;-76
2022/05/10 02:55:56;;;;;;;10.13;9.33;;;;;;;9.45;100.00;100021.53;4823417;29;20612;-75
2022/05/10 02:58:33;;;;;;;10.73;9.83;;;;;;;9.44;100.00;100019.06;4823116;29;20722;-75
2022/05/10 03:01:19;;;;;;;9.47;8.67;;;;;;;9.42;100.00;100018.47;4806966;29;20220;-75
2022/05/10 03:03:46;;;;;;;10.07;9.37;;;;;;;9.38;100.00;100014.53;4806798;29;20214;-75
2022/05/10 03:06:17;;;;;;;10.70;9.83;;;;;;;9.34;100.00;100014.09;4823337;29;20278;-76
2022/05/10 03:08:47;;;;;;;10.83;9.93;;;;;;;9.32;100.00;100015.34;4823127;29;20221;-75
2022/05/10 03:11:14;;;;;;;11.13;10.13;;;;;;;9.28;100.00;100014.94;4822987;29;20194;-76
2022/05/10 03:13:42;;;;;;;10.77;9.87;;;;;;;9.25;100.00;100016.13;4806928;29;20204;-76
2022/05/10 03:16:09;;;;;;;11.57;10.13;;;;;;;9.19;100.00;100008.13;4822824;29;20617;-75
2022/05/10 03:18:36;;;;;;;10.67;9.77;;;;;;;9.18;100.00;100001.13;4822330;29;20192;-75
2022/05/10 03:21:03;;;;;;;10.97;10.07;;;;;;;9.16;100.00;100011.19;4807329;29;20242;-76
2022/05/10 03:23:30;;;;;;;10.63;9.73;;;;;;;9.13;100.00;100008.91;4822683;29;20265;-75
2022/05/10 03:25:57;;;;;;;11.30;10.33;;;;;;;9.15;100.00;100004.19;4823038;29;20217;-76
2022/05/10 03:28:24;;;;;;;10.60;9.73;;;;;;;9.14;100.00;100005.22;4822972;29;20744;-76
2022/05/10 03:30:51;;;;;;;11.13;10.23;;;;;;;9.18;100.00;100009.13;4823075;29;20222;-76
2022/05/10 03:33:18;;;;;;;11.20;10.30;;;;;;;9.17;100.00;100010.97;4823185;29;20198;-77
2022/05/10 03:35:45;;;;;;;11.30;10.40;;;;;;;9.20;100.00;100018.59;4823102;29;20281;-76
2022/05/10 03:38:11;;;;;;;11.50;10.50;;;;;;;9.23;100.00;100015.53;4822595;29;20229;-78
2022/05/10 03:40:38;;;;;;;11.33;10.33;;;;;;;9.22;100.00;100016.56;4822179;29;20640;-76
2022/05/10 03:43:08;;;;;;;12.47;10.70;;;;;;;9.23;100.00;100014.72;4823165;29;20270;-76
2022/05/10 03:45:35;;;;;;;11.17;10.17;;;;;;;9.26;100.00;100001.75;4806458;29;20221;-76
2022/05/10 03:48:02;;;;;;;11.97;10.77;;;;;;;9.34;100.00;99999.91;4822879;29;20222;-76
2022/05/10 03:50:29;;;;;;;11.57;10.47;;;;;;;9.49;100.00;100008.59;4822480;29;20228;-76
2022/05/10 03:52:56;;;;;;;10.83;9.93;;;;;;;9.77;100.00;100009.22;4806687;29;20291;-76
2022/05/10 03:55:24;;;;;;;11.33;10.33;;;;;;;10.16;100.00;100027.19;4822724;29;20217;-76
2022/05/10 03:57:52;;;;;;;10.67;9.67;;;;;;;10.40;100.00;100010.47;4806510;29;20322;-76
2022/05/10 04:00:25;;;;;;;10.90;9.90;;;;;;;10.68;100.00;100050.41;4822408;29;20276;-76
2022/05/10 04:02:54;;;;;;;10.87;9.80;;;;;;;11.36;100.00;100099.84;4822171;29;20182;-76
2022/05/10 04:05:22;;;;;;;10.43;9.43;;;;;;;11.47;100.00;100018.69;4822463;29;20198;-77
2022/05/10 04:07:49;;;;;;;9.37;8.67;;;;;;;11.36;100.00;100016.69;4806591;29;20702;-76
2022/05/10 04:10:16;;;;;;;9.60;8.80;;;;;;;11.26;100.00;100021.69;4822342;29;20276;-76
2022/05/10 04:12:43;;;;;;;9.30;8.50;;;;;;;11.22;100.00;100016.97;4822481;29;20277;-76
2022/05/10 04:15:14;;;;;;;9.63;8.83;;;;;;;11.16;100.00;100018.66;4822168;29;20651;-76
2022/05/10 04:17:44;;;;;;;10.13;9.23;;;;;;;11.14;100.00;100018.06;4822431;29;20209;-76
2022/05/10 04:20:13;;;;;;;10.70;9.80;;;;;;;11.16;100.00;100012.44;4822535;29;20210;-77
2022/05/10 04:22:40;;;;;;;9.63;8.73;;;;;;;11.25;100.00;100021.91;4822214;29;20261;-76
2022/05/10 04:25:17;;;;;;;10.17;9.37;;;;;;;11.33;100.00;100021.66;4807075;29;20291;-76
2022/05/10 04:27:44;;;;;;;9.03;8.27;;;;;;;11.44;100.00;100031.69;4822269;29;20196;-77
2022/05/10 04:30:11;;;;;;;9.43;8.53;;;;;;;11.56;100.00;100038.03;4822234;29;20722;-77
2022/05/10 04:32:38;;;;;;;9.40;8.60;;;;;;;11.67;100.00;100029.28;4822190;29;20231;-76
2022/05/10 04:35:06;;;;;;;9.33;8.43;;;;;;;11.81;100.00;100038.09;4822473;29;20229;-76
2022/05/10 04:37:34;;;;;;;10.57;9.47;;;;;;;12.02;100.00;100044.97;4805857;29;20189;-76
2022/05/10 04:42:47;;;;;;;12.03;8.93;;;;;;;12.27;100.00;100048.50;4808346;29;20651;-76
2022/05/10 04:45:14;;;;;;;9.17;8.47;;;;;;;12.43;100.00;100047.09;4821552;29;20305;-79
2022/05/10 04:47:41;;;;;;;8.23;7.53;;;;;;;12.53;100.00;100048.22;4820944;29;20213;-77
2022/05/10 04:50:09;;;;;;;9.17;8.37;;;;;;;12.67;100.00;100049.75;4822035;29;20194;-77
2022/05/10 04:52:36;;;;;;;8.10;7.50;;;;;;;12.83;100.00;100050.19;4821380;29;20277;-76
2022/05/10 04:55:05;;;;;;;8.40;7.70;;;;;;;12.94;100.00;100044.88;4822070;29;20217;-76
2022/05/10 04:57:35;;;;;;;7.53;6.93;;;;;;;13.09;100.00;100049.88;4822019;29;20671;-76
2022/05/10 05:00:06;;;;;;;7.80;7.20;;;;;;;13.23;100.00;100046.84;4822088;29;20178;-76
2022/05/10 05:02:33;;;;;;;8.33;7.53;;;;;;;13.35;100.00;100052.25;4804854;29;20692;-76
2022/05/10 05:05:00;;;;;;;7.90;7.10;;;;;;;13.50;100.00;100054.53;4821840;29;20217;-77
2022/05/10 05:07:27;;;;;;;7.33;6.70;;;;;;;13.61;100.00;100049.22;4821666;29;20197;-76
2022/05/10 05:09:55;;;;;;;7.93;7.23;;;;;;;13.74;100.00;100052.75;4821847;29;20240;-76
2022/05/10 05:12:22;;;;;;;7.73;7.20;;;;;;;13.84;100.00;100055.72;4821588;29;20226;-77
2022/05/10 05:14:49;;;;;;;7.80;7.00;;;;;;;13.92;100.00;100055.38;4821687;29;20274;-76
2022/05/10 05:17:16;;;;;;;7.80;7.17;;;;;;;14.10;100.00;100061.50;4821524;29;20307;-76
2022/05/10 05:19:42;;;;;;;8.30;7.50;;;;;;;14.28;100.00;100057.06;4821424;29;20222;-76
2022/05/10 05:22:09;;;;;;;8.03;6.90;;;;;;;14.41;100.00;100065.81;4821788;29;20265;-76
2022/05/10 05:24:36;;;;;;;8.23;6.93;;;;;;;14.51;100.00;100057.94;4821494;29;20307;-76
2022/05/10 05:27:03;;;;;;;8.00;7.10;;;;;;;14.69;100.00;100072.38;4821007;29;20220;-76
2022/05/10 05:29:31;;;;;;;7.67;6.97;;;;;;;14.85;100.00;100067.06;4805403;29;20665;-77
2022/05/10 05:32:20;;;;;;;7.37;6.77;;;;;;;15.03;100.00;100068.78;4821291;29;20661;-76
2022/05/10 05:34:47;;;;;;;7.40;6.80;;;;;;;15.17;100.00;100072.03;4805229;29;20196;-76
2022/05/10 05:37:34;;;;;;;7.47;6.77;;;;;;;15.31;100.00;100074.22;4820872;29;20186;-76
2022/05/10 05:40:05;;;;;;;7.97;7.13;;;;;;;15.48;100.00;100076.19;4821068;29;20196;-77
2022/05/10 05:42:32;;;;;;;7.23;6.63;;;;;;;15.57;100.00;100069.38;4820237;29;20189;-76
2022/05/10 05:44:58;;;;;;;8.10;7.40;;;;;;;15.72;100.00;100067.75;4820300;29;20348;-77
2022/05/10 05:47:25;;;;;;;9.47;6.90;;;;;;;15.84;100.00;100068.53;4820544;29;20280;-76
2022/05/10 05:49:53;;;;;;;7.73;7.03;;;;;;;15.96;100.00;100073.06;4820978;29;20656;-76
2022/05/10 05:52:22;;;;;;;7.63;7.03;;;;;;;16.01;100.00;100070.41;4820453;29;20251;-77
2022/05/10 05:54:50;;;;;;;8.00;7.33;;;;;;;16.20;100.00;100066.41;4804582;29;20224;-77
2022/05/10 05:57:17;;;;;;;7.30;6.70;;;;;;;16.38;100.00;100076.97;4820267;29;20238;-77
2022/05/10 05:59:44;;;;;;;7.67;7.07;;;;;;;16.44;100.00;100070.59;4819168;29;20276;-76
2022/05/10 06:02:17;;;;;;;7.17;6.47;;;;;;;16.61;100.00;100073.31;4819148;29;20323;-77
2022/05/10 06:04:44;;;;;;;7.20;6.50;;;;;;;16.66;100.00;100076.09;4804347;29;20680;-76
2022/05/10 06:07:11;;;;;;;6.90;6.30;;;;;;;16.84;100.00;100075.00;4820197;29;20224;-78
2022/05/10 06:09:38;;;;;;;7.13;6.40;;;;;;;16.95;100.00;100074.06;4803060;29;20278;-77
2022/05/10 06:12:06;;;;;;;6.80;6.13;;;;;;;17.08;100.00;100073.69;4815896;29;20213;-77
2022/05/10 06:14:34;;;;;;;7.10;6.50;;;;;;;17.25;100.00;100076.34;4818117;29;20264;-76
2022/05/10 06:17:07;;;;;;;6.63;6.03;;;;;;;17.39;100.00;100077.59;4818571;29;20217;-77
2022/05/10 06:19:37;;;;;;;6.80;6.20;;;;;;;17.49;100.00;100077.72;4818166;29;20228;-77
2022/05/10 06:22:05;;;;;;;6.60;6.00;;;;;;;17.62;100.00;100076.53;4819793;29;20646;-77
2022/05/10 06:24:32;;;;;;;11.43;6.90;;;;;;;17.72;100.00;100073.94;4820205;29;20218;-76
2022/05/10 06:27:00;;;;;;;7.60;6.67;;;;;;;17.73;100.00;100076.38;4820068;29;20198;-77
2022/05/10 06:29:27;;;;;;;7.83;6.43;;;;;;;17.72;100.00;100073.94;4820175;29;20306;-77
2022/05/10 06:31:54;;;;;;;7.77;7.03;;;;;;;17.79;100.00;100074.53;4820188;29;20270;-77
2022/05/10 06:34:21;;;;;;;6.87;6.27;;;;;;;17.92;100.00;100065.97;4820368;29;20194;-78
2022/05/10 06:36:47;;;;;;;6.97;6.27;;;;;;;18.01;100.00;100076.09;4804292;29;20229;-77
2022/05/10 06:39:14;;;;;;;6.63;5.90;;;;;;;18.09;100.00;100074.00;4819699;29;20239;-77
2022/05/10 06:41:41;;;;;;;6.27;5.67;;;;;;;18.14;100.00;100063.22;4820107;29;20194;-79
2022/05/10 06:44:08;;;;;;;7.17;6.30;;;;;;;18.04;100.00;100069.38;4804073;29;20241;-77
2022/05/10 06:46:35;;;;;;;6.17;5.67;;;;;;;18.22;100.00;100068.16;4804045;29;20266;-78
2022/05/10 06:49:04;;;;;;;7.87;6.37;;;;;;;18.19;100.00;100065.97;4820587;29;20190;-78
2022/05/10 06:51:31;;;;;;;6.30;5.70;;;;;;;18.26;100.00;100074.69;4819854;29;20194;-78
2022/05/10 06:53:59;;;;;;;6.77;6.17;;;;;;;18.45;100.00;100075.94;4822042;29;20623;-78
2022/05/10 06:56:26;;;;;;;6.87;6.20;;;;;;;18.45;100.00;100074.03;4823098;29;20256;-77
2022/05/10 06:58:53;;;;;;;6.80;6.30;;;;;;;18.63;100.00;100080.97;4823466;29;20686;-77
2022/05/10 07:01:20;;;;;;;6.77;5.90;;;;;;;18.72;100.00;100073.97;4822769;29;20681;-78
2022/05/10 07:03:50;;;;;;;7.57;5.80;;;;;;;18.72;100.00;100067.72;4823202;29;20277;-79
2022/05/10 07:06:20;;;;;;;7.20;6.30;;;;;;;18.83;100.00;100067.53;4823173;29;20825;-78
2022/05/10 07:08:46;;;;;;;6.70;6.03;;;;;;;18.59;100.00;100066.28;4823195;29;20186;-78
2022/05/10 07:11:13;;;;;;;6.87;6.17;;;;;;;18.82;100.00;100067.78;4823246;29;20250;-82
2022/05/10 07:13:40;;;;;;;5.97;5.30;;;;;;;19.05;100.00;100067.38;4822853;29;20198;-76
2022/05/10 07:16:07;;;;;;;6.17;5.57;;;;;;;18.92;100.00;100062.41;4821348;29;20301;-77
2022/05/10 07:18:34;;;;;;;13.20;5.60;;;;;;;19.03;100.00;100066.84;4821315;29;20261;-77
2022/05/10 07:21:02;;;;;;;6.53;5.20;;;;;;;19.24;100.00;100073.16;4821678;29;20229;-77
2022/05/10 07:23:30;;;;;;;6.63;5.33;;;;;;;19.38;100.00;100065.31;4822431;29;20229;-77
2022/05/10 07:26:03;;;;;;;6.47;5.67;;;;;;;19.59;100.00;100070.59;4788958;29;20210;-78
2022/05/10 07:28:32;;;;;;;6.37;5.17;;;;;;;19.66;100.00;100068.44;4802569;29;20215;-77
2022/05/10 07:30:59;;;;;;;6.33;5.33;;;;;;;19.82;97.71;100065.75;4802666;29;20259;-77
2022/05/10 07:33:27;;;;;;;7.50;5.87;;;;;;;19.89;94.39;100061.66;4804121;29;20711;-77
2022/05/10 07:38:42;;;;;;;7.87;5.70;;;;;;;19.66;96.94;100060.28;4804646;29;20713;-78
2022/05/10 07:41:11;;;;;;;6.07;5.57;;;;;;;19.72;97.15;100051.06;4804435;29;20192;-77
2022/05/10 07:43:38;;;;;;;8.87;6.07;;;;;;;19.95;96.43;100057.88;4804467;29;20231;-77
2022/05/10 07:46:06;;;;;;;6.60;5.43;;;;;;;20.31;94.06;100060.63;4803308;29;20255;-78
2022/05/10 07:48:33;;;;;;;7.23;5.90;;;;;;;20.44;94.73;100055.44;4804314;29;20206;-77
2022/05/10 07:51:01;;;;;;;6.80;6.13;;;;;;;20.33;92.65;100059.28;4804060;29;20543;-76
2022/05/10 07:53:31;;;;;;;9.10;6.00;;;;;;;20.58;90.43;100061.97;4803895;29;20204;-77
2022/05/10 07:55:59;;;;;;;7.63;6.03;;;;;;;20.92;89.99;100055.91;4805143;29;20696;-77
2022/05/10 07:58:26;;;;;;;9.13;5.77;;;;;;;20.95;93.42;100063.53;4821339;29;20243;-76
2022/05/10 08:00:53;;;;;;;7.37;5.57;;;;;;;21.15;93.60;100065.38;4821878;29;20226;-76
2022/05/10 08:03:22;;;;;;;6.67;5.60;;;;;;;21.25;90.81;100066.16;4819538;29;20724;-77
2022/05/10 08:05:49;;;;;;;6.53;5.97;;;;;;;20.86;90.04;100052.38;4822198;29;20277;-77
2022/05/10 08:08:19;;;;;;;6.07;5.47;;;;;;;21.09;85.58;100059.91;4821301;29;20195;-76
2022/05/10 08:10:47;;;;;;;7.00;5.50;;;;;;;21.09;85.17;100056.38;4822159;29;20220;-76
2022/05/10 08:13:16;;;;;;;6.60;5.87;;;;;;;21.20;81.58;100055.28;4821461;29;20240;-78
2022/05/10 08:15:44;;;;;;;6.57;5.30;;;;;;;21.31;86.02;100054.16;4805793;29;20244;-78
2022/05/10 08:18:12;;;;;;;6.80;6.00;;;;;;;21.23;88.08;100048.47;4821480;29;20254;-76
2022/05/10 08:20:40;;;;;;;7.87;5.80;;;;;;;21.37;86.35;100053.00;4821765;29;20225;-77
2022/05/10 08:23:07;;;;;;;9.20;6.50;;;;;;;21.16;87.49;100050.66;4820133;29;20683;-76
2022/05/10 08:25:34;;;;;;;10.33;6.60;;;;;;;21.27;87.43;100053.09;4819806;29;20230;-76
2022/05/10 08:28:02;;;;;;;6.77;5.57;;;;;;;21.24;81.67;100048.16;4805069;29;20193;-77
2022/05/10 08:30:30;;;;;;;8.13;5.43;;;;;;;21.38;84.88;100042.94;4821505;29;20839;-77
2022/05/10 08:32:57;;;;;;;6.10;5.50;;;;;;;21.42;82.13;100036.63;4804845;29;20201;-77
2022/05/10 08:35:40;;;;;;;6.87;5.30;;;;;;;21.25;83.66;100044.38;4820057;29;20212;-77
2022/05/10 08:38:08;;;;;;;5.90;5.30;;;;;;;21.27;78.95;100041.38;4821542;29;20281;-77
2022/05/10 08:40:54;;;;;;;6.20;5.53;;;;;;;21.47;80.15;100041.25;4820308;29;20206;-76
2022/05/10 08:43:28;;;;;;;7.07;5.83;;;;;;;21.58;81.34;100042.00;4821490;29;20218;-77
2022/05/10 08:45:55;;;;;;;7.27;5.70;;;;;;;21.73;82.99;100047.38;4821635;29;20242;-77
2022/05/10 08:48:25;;;;;;;6.77;5.13;;;;;;;21.74;83.79;100035.38;4821119;29;20210;-78
2022/05/10 08:50:51;;;;;;;6.17;5.57;;;;;;;21.76;87.02;100041.34;4805696;29;20267;-77
2022/05/10 08:53:19;;;;;;;6.73;5.70;;;;;;;21.95;85.13;100034.97;4821219;29;20273;-77
2022/05/10 08:56:11;;;;;;;6.33;5.27;;;;;;;21.96;83.07;100030.31;4805287;29;20196;-77
2022/05/10 08:58:48;;;;;;;7.10;5.63;;;;;;;22.14;80.63;100029.63;4805125;29;20279;-78
2022/05/10 09:01:41;;;;;;;6.73;5.20;;;;;;;22.26;80.13;100023.78;4807352;29;20191;-77
2022/05/10 09:04:23;;;;;;;6.90;5.77;;;;;;;22.26;77.87;100021.06;4820823;29;20640;-77
2022/05/10 09:07:13;;;;;;;8.03;6.17;;;;;;;22.06;78.12;100018.53;4821185;29;20183;-77
2022/05/10 09:10:08;;;;;;;7.87;6.33;;;;;;;21.92;78.92;100023.78;4804912;29;20214;-77
2022/05/10 09:13:05;;;;;;;7.30;5.07;;;;;;;22.07;78.05;100017.44;4806191;29;20476;-77
2022/05/10 09:15:37;;;;;;;8.93;5.80;;;;;;;22.19;79.93;100015.13;4804411;29;20215;-77
2022/05/10 09:18:08;;;;;;;6.17;5.30;;;;;;;22.17;78.84;100003.66;4805324;29;20189;-77
2022/05/10 09:20:40;;;;;;;6.97;5.60;;;;;;;22.26;78.23;100010.13;4804798;29;20196;-77
2022/05/10 09:23:14;;;;;;;6.33;5.40;;;;;;;22.21;77.13;100002.81;4804550;29;20830;-77
2022/05/10 09:25:43;;;;;;;6.50;5.80;;;;;;;22.31;76.39;99993.72;4821182;29;20236;-77
2022/05/10 09:28:17;;;;;;;5.90;5.50;;;;;;;22.31;73.84;100001.91;4820867;29;20174;-79
2022/05/10 09:34:45;;;;;;;7.83;5.50;;;;;;;22.19;74.77;99991.38;4821433;29;20190;-77
2022/05/10 09:36:28;;;;;;;8.23;5.50;;;;;;;22.48;79.37;99990.56;4806897;29;20181;-77
2022/05/10 09:39:13;;;;;;;5.95;5.38;;;;;;;22.62;73.55;99989.59;4820381;29;20289;-77
2022/05/10 09:41:44;;;;;;;5.47;4.97;;;;;;;22.81;69.87;99985.03;4821143;29;20221;-77
2022/05/10 09:44:16;;;;;;;5.72;5.18;;;;;;;22.87;67.89;99984.94;4820741;29;20227;-77
2022/05/10 09:46:42;;;;;;;5.63;5.13;;;;;;;23.10;67.29;99984.09;4820455;29;20254;-78
2022/05/10 09:49:30;;;;;;;7.22;5.15;;;;;;;23.23;67.30;99981.47;4819272;29;20190;-77
2022/05/10 09:51:58;;;;;;;6.10;5.57;;;;;;;23.46;71.71;99974.34;4819373;29;20205;-77
2022/05/10 09:54:38;;;;;;;6.50;6.00;;;;;;;23.61;70.75;99974.09;4820133;29;20190;-77
2022/05/10 09:57:13;;;;;;;6.20;5.70;;;;;;;23.84;69.36;99974.31;4819888;29;20271;-78
2022/05/10 09:59:48;;;;;;;9.13;6.07;;;;;;;23.89;71.27;99971.50;4802955;29;20228;-77
2022/05/10 10:02:34;;;;;;;5.45;5.00;;;;;;;23.88;67.30;99964.38;4802057;29;20213;-77
2022/05/10 10:05:25;;;;;;;5.80;5.30;;;;;;;24.00;63.19;99962.78;4820073;29;20202;-77
2022/05/10 10:07:55;;;;;;;6.45;5.15;;;;;;;24.12;65.90;99968.59;4820371;29;20254;-77
2022/05/10 10:10:29;;;;;;;8.05;6.10;;;;;;;23.77;70.99;99962.91;4804046;29;20198;-77
2022/05/10 10:12:56;;;;;;;4.82;4.40;;;;;;;23.74;59.81;99963.53;4820050;29;20368;-77
2022/05/10 10:15:29;;;;;;;4.72;3.97;;;;;;;23.95;54.72;99956.59;4819549;29;20297;-77
2022/05/10 10:18:06;;;;;;;5.22;4.72;;;;;;;24.10;59.18;99950.84;4820023;29;20201;-77
2022/05/10 10:20:54;;;;;;;5.80;5.30;;;;;;;24.12;57.56;99949.44;4819781;29;20322;-76
2022/05/10 10:23:28;;;;;;;5.35;4.85;;;;;;;24.12;59.34;99943.16;4804990;29;20265;-77
2022/05/10 10:26:06;;;;;;;4.55;3.88;;;;;;;23.82;57.34;99946.41;4785856;29;20275;-77
2022/05/10 10:28:39;;;;;;;5.07;4.60;;;;;;;23.59;60.84;99937.22;4804497;29;20195;-77
2022/05/10 10:31:13;;;;;;;4.45;4.07;;;;;;;23.83;59.77;99931.63;4790870;29;20191;-77
2022/05/10 10:33:49;;;;;;;4.38;3.97;;;;;;;24.05;59.28;99937.25;4807039;29;20191;-77
2022/05/10 10:36:26;;;;;;;5.30;4.55;;;;;;;24.06;57.40;99926.03;4805472;29;20221;-77
2022/05/10 10:39:18;;;;;;;4.55;3.95;;;;;;;24.24;52.17;99923.53;4789570;29;20213;-77
2022/05/10 10:41:53;;;;;;;4.88;4.28;;;;;;;24.61;52.95;99928.84;4798456;29;20267;-77
2022/05/10 10:44:25;;;;;;;5.55;3.95;;;;;;;24.69;50.57;99921.81;4805213;29;20221;-77
2022/05/10 10:47:08;;;;;;;3.75;3.40;;;;;;;24.87;49.16;99918.19;4789548;29;20222;-77
2022/05/10 10:49:57;;;;;;;3.92;3.30;;;;;;;25.13;49.81;99913.78;4788926;29;20185;-77
2022/05/10 10:52:24;;;;;;;4.70;3.83;;;;;;;25.31;47.47;99904.56;4804727;29;20184;-77
2022/05/10 10:54:51;;;;;;;4.55;3.90;;;;;;;25.27;48.66;99914.53;4805562;29;20285;-77
2022/05/10 10:57:56;;;;;;;4.10;3.70;;;;;;;25.49;46.18;99908.25;4773996;29;20222;-78
2022/05/10 11:00:37;;;;;;;5.50;3.50;;;;;;;25.16;48.34;99909.59;4773481;29;20297;-78
2022/05/10 11:03:15;;;;;;;4.13;3.72;;;;;;;24.80;46.88;99902.13;4788884;29;20237;-77
2022/05/10 11:06:15;;;;;;;4.15;3.05;;;;;;;24.80;44.67;99901.31;4805275;29;20202;-78
2022/05/10 11:08:49;;;;;;;4.90;3.20;;;;;;;25.04;43.46;99901.09;4803346;29;20198;-77
2022/05/10 11:11:41;;;;;;;3.50;3.20;;;;;;;25.29;41.79;99903.28;4802871;29;20186;-78
2022/05/10 11:14:23;;;;;;;5.68;2.95;;;;;;;25.05;41.53;99897.25;4803329;29;20206;-77
2022/05/10 11:17:11;;;;;;;3.15;2.90;;;;;;;24.66;38.53;99897.78;4804962;29;20215;-78
2022/05/10 11:20:01;;;;;;;3.65;3.35;;;;;;;25.09;39.47;99896.31;4804773;29;20211;-77
2022/05/10 11:22:44;;;;;;;3.80;3.10;;;;;;;25.19;42.10;99900.75;4812620;29;20600;-77
2022/05/10 11:25:41;;;;;;;3.28;2.97;;;;;;;25.62;41.21;99890.94;4806939;29;20230;-77
2022/05/10 11:28:50;;;;;;;3.90;3.60;;;;;;;25.19;40.53;99890.59;4788363;29;20214;-77
2022/05/10 11:32:15;;;;;;;3.95;3.00;;;;;;;25.36;39.51;99881.69;4774183;29;20218;-77
2022/05/10 11:34:59;;;;;;;3.58;2.53;;;;;;;25.67;37.75;99873.53;4748631;30;20279;-77
2022/05/10 11:37:32;;;;;;;4.28;2.63;;;;;;;25.55;40.14;99868.63;4748374;30;20290;-77
2022/05/10 11:40:13;;;;;;;3.70;2.90;;;;;;;25.75;37.79;99859.09;4775288;29;20326;-80
2022/05/10 11:43:01;;;;;;;3.22;3.00;;;;;;;25.90;36.40;99857.88;4796794;29;20264;-78
2022/05/10 11:45:55;;;;;;;2.78;2.55;;;;;;;25.54;35.01;99863.41;4821532;29;20208;-78
2022/05/10 11:48:31;;;;;;;2.78;2.40;;;;;;;25.93;36.78;99851.75;4822428;29;20190;-79
2022/05/10 11:54:22;;;;;;;3.35;2.90;;;;;;;26.59;37.33;99853.47;4822777;29;20259;-80
2022/05/10 11:56:51;;;;;;;2.95;2.40;;;;;;;26.92;35.51;99849.16;4823041;29;20214;-79